Time;durP1;ratioP1;P1;durP2;ratioP2;P2;SDS_P1;SDS_P2;PMS_P1;PMS_P2;Temp;Humidity;BMP_temperature;BMP_pressure;BME280_temperature;BME280_humidity;BME280_pressure;Samples;Min_cycle;Max_cycle;Signal;HPM_P1;HPM_P2
2022/09/07 00:02:19;;;;;;;10.20;7.30;;;19.40;99.90;;;;;;5090775;28;20708;-80
2022/09/07 00:04:45;;;;;;;10.35;7.30;;;19.30;99.90;;;;;;5102755;28;20039;-81
2022/09/07 00:07:10;;;;;;;10.13;7.05;;;19.20;99.90;;;;;;5107369;28;20050;-80
2022/09/07 00:09:36;;;;;;;9.95;7.53;;;19.10;99.90;;;;;;5110885;28;20044;-80
2022/09/07 00:12:02;;;;;;;11.35;7.50;;;19.10;99.90;;;;;;5105138;28;20050;-81
2022/09/07 00:14:27;;;;;;;9.38;7.90;;;19.00;99.90;;;;;;5108641;28;20085;-80
2022/09/07 00:16:53;;;;;;;9.15;7.20;;;19.00;99.90;;;;;;5103519;28;20031;-81
2022/09/07 00:19:18;;;;;;;8.55;7.65;;;19.00;99.90;;;;;;5104057;28;20084;-79
2022/09/07 00:21:44;;;;;;;11.43;8.00;;;19.00;99.90;;;;;;5107913;28;20405;-80
2022/09/07 00:24:09;;;;;;;9.52;8.52;;;18.90;99.90;;;;;;5102730;28;20518;-80
2022/09/07 00:26:35;;;;;;;11.60;8.30;;;18.80;99.90;;;;;;5106278;28;20084;-79
2022/09/07 00:29:02;;;;;;;12.13;7.82;;;18.80;99.90;;;;;;5107336;28;20069;-79
2022/09/07 00:31:29;;;;;;;11.63;9.20;;;18.60;99.90;;;;;;5106789;28;20036;-79
2022/09/07 00:33:58;;;;;;;9.88;8.40;;;18.70;99.90;;;;;;5105390;28;20054;-81
2022/09/07 00:36:24;;;;;;;12.55;9.25;;;18.70;99.90;;;;;;5096138;28;20032;-80
2022/09/07 00:38:49;;;;;;;10.10;8.93;;;18.60;99.90;;;;;;5109328;28;20374;-80
2022/09/07 00:41:16;;;;;;;12.38;8.90;;;18.60;99.90;;;;;;5113456;28;20032;-78
2022/09/07 00:43:51;;;;;;;10.65;9.55;;;18.60;99.90;;;;;;5085537;28;20045;-79
2022/09/07 00:46:23;;;;;;;11.82;9.60;;;18.60;99.90;;;;;;5083730;28;20440;-79
2022/09/07 00:49:15;;;;;;;11.68;9.07;;;18.60;99.90;;;;;;5102361;28;20036;-79
2022/09/07 00:51:54;;;;;;;11.75;9.65;;;18.70;99.90;;;;;;5105113;28;20551;-79
2022/09/07 00:54:26;;;;;;;11.40;9.30;;;18.80;99.90;;;;;;5098210;28;20455;-80
2022/09/07 00:56:52;;;;;;;11.30;9.55;;;18.70;99.90;;;;;;5105323;28;20058;-79
2022/09/07 00:59:23;;;;;;;10.95;9.27;;;18.60;99.90;;;;;;5104188;28;20039;-79
2022/09/07 01:01:49;;;;;;;13.10;10.15;;;18.50;99.90;;;;;;5103296;27;20448;-80
2022/09/07 01:04:15;;;;;;;13.45;10.20;;;18.60;99.90;;;;;;5110498;28;20039;-80
2022/09/07 01:06:42;;;;;;;12.63;10.50;;;18.70;99.90;;;;;;5089444;28;20451;-81
2022/09/07 01:09:27;;;;;;;13.60;9.90;;;18.80;99.90;;;;;;5090836;28;20054;-80
2022/09/07 01:11:56;;;;;;;18.15;10.20;;;18.80;99.90;;;;;;5086053;28;20043;-81
2022/09/07 01:14:26;;;;;;;11.93;9.55;;;18.60;99.90;;;;;;5107604;28;20135;-79
2022/09/07 01:17:20;;;;;;;13.82;10.75;;;18.50;99.90;;;;;;5110075;28;20032;-80
2022/09/07 01:20:21;;;;;;;12.43;9.80;;;18.50;99.90;;;;;;5100685;28;20040;-78
2022/09/07 01:23:20;;;;;;;12.23;10.40;;;18.60;99.90;;;;;;5095302;28;20353;-79
2022/09/07 01:25:58;;;;;;;13.77;10.77;;;18.50;99.90;;;;;;5108402;28;20501;-78
2022/09/07 01:28:29;;;;;;;36.85;13.20;;;18.40;99.90;;;;;;5104139;28;20655;-74
2022/09/07 01:31:06;;;;;;;51.45;14.75;;;18.20;99.90;;;;;;5097783;28;20137;-75
2022/09/07 01:34:03;;;;;;;50.90;15.60;;;17.90;99.90;;;;;;5104494;28;20044;-77
2022/09/07 01:36:48;;;;;;;26.27;13.68;;;17.70;99.90;;;;;;5101582;28;20044;-78
2022/09/07 01:39:14;;;;;;;20.13;12.10;;;17.70;99.90;;;;;;5099684;28;20040;-78
2022/09/07 01:42:03;;;;;;;17.23;11.60;;;17.60;99.90;;;;;;5090320;28;20040;-78
2022/09/07 01:44:35;;;;;;;15.18;11.40;;;17.70;99.90;;;;;;5088504;28;20134;-79
2022/09/07 01:47:21;;;;;;;15.68;11.48;;;17.60;99.90;;;;;;5099609;28;20075;-80
2022/09/07 01:50:08;;;;;;;16.10;11.50;;;17.60;99.90;;;;;;5099625;28;20038;-79
2022/09/07 01:52:41;;;;;;;13.90;11.52;;;17.50;99.90;;;;;;5103728;28;20055;-79
2022/09/07 01:55:27;;;;;;;13.57;10.75;;;17.70;99.90;;;;;;5095118;28;20044;-78
2022/09/07 01:58:17;;;;;;;14.38;10.18;;;17.70;99.90;;;;;;5104892;28;20118;-79
2022/09/07 02:00:50;;;;;;;12.68;10.27;;;17.70;99.90;;;;;;5098144;28;20062;-80
2022/09/07 02:03:27;;;;;;;11.60;8.43;;;17.60;99.90;;;;;;5081084;28;20028;-80
2022/09/07 02:06:33;;;;;;;11.50;8.38;;;17.70;99.90;;;;;;5098913;28;20618;-79
2022/09/07 02:09:09;;;;;;;10.63;8.48;;;17.70;99.90;;;;;;5071408;28;20051;-79
2022/09/07 02:11:42;;;;;;;9.60;7.07;;;17.70;99.90;;;;;;5104320;28;20074;-80
2022/09/07 02:14:14;;;;;;;9.83;5.20;;;17.60;99.90;;;;;;5105478;28;20039;-80
2022/09/07 02:16:52;;;;;;;7.30;4.15;;;17.50;99.90;;;;;;5108045;28;20489;-80
2022/09/07 02:19:20;;;;;;;5.28;3.97;;;17.40;99.90;;;;;;5107522;28;20512;-80
2022/09/07 02:21:54;;;;;;;6.22;4.40;;;17.60;99.90;;;;;;5101065;28;20051;-81
2022/09/07 02:24:26;;;;;;;5.80;3.63;;;17.50;99.90;;;;;;5109191;28;20509;-80
2022/09/07 02:26:54;;;;;;;7.18;4.75;;;17.60;99.90;;;;;;5105968;28;20047;-81
2022/09/07 02:29:20;;;;;;;6.32;4.65;;;17.60;99.90;;;;;;5093236;28;20039;-80
2022/09/07 02:31:46;;;;;;;4.70;2.83;;;17.70;99.90;;;;;;5105111;28;20566;-79
2022/09/07 02:34:12;;;;;;;3.40;2.50;;;17.60;99.90;;;;;;5109553;28;20058;-79
2022/09/07 02:36:46;;;;;;;6.95;2.90;;;17.60;99.90;;;;;;5107311;28;20036;-79
2022/09/07 02:39:12;;;;;;;;;;;17.50;99.90;;;;;;5103534;28;20060;-79
2022/09/07 02:41:40;;;;;;;4.55;3.10;;;17.40;99.90;;;;;;5109448;28;19966;-78
2022/09/07 02:44:16;;;;;;;4.07;2.90;;;17.50;99.90;;;;;;5094679;28;21897;-78
2022/09/07 02:46:51;;;;;;;4.63;3.63;;;17.50;99.90;;;;;;5109558;28;20036;-78
2022/09/07 02:49:25;;;;;;;3.80;2.97;;;17.60;99.90;;;;;;5099113;28;20044;-78
2022/09/07 02:52:21;;;;;;;5.25;3.30;;;17.60;99.90;;;;;;5098949;28;20108;-79
2022/09/07 02:55:12;;;;;;;3.67;2.97;;;17.70;99.90;;;;;;5122710;28;20401;-79
2022/09/07 02:57:37;;;;;;;4.30;3.08;;;17.80;99.90;;;;;;5100708;28;20101;-79
2022/09/07 03:00:09;;;;;;;4.38;3.50;;;17.70;99.90;;;;;;5104667;28;20039;-79
2022/09/07 03:02:55;;;;;;;4.70;3.75;;;17.70;99.90;;;;;;5103790;28;20035;-79
2022/09/07 03:05:38;;;;;;;5.80;3.58;;;17.80;99.90;;;;;;5096780;28;20036;-79
2022/09/07 03:08:17;;;;;;;4.73;3.87;;;17.80;99.90;;;;;;5100837;28;20039;-79
2022/09/07 03:10:42;;;;;;;4.90;3.53;;;17.80;99.90;;;;;;5106833;28;20044;-79
2022/09/07 03:13:17;;;;;;;4.95;3.90;;;17.90;99.90;;;;;;5099490;28;20051;-80
2022/09/07 03:15:43;;;;;;;4.35;3.92;;;17.90;99.90;;;;;;5107889;28;20036;-80
2022/09/07 03:18:11;;;;;;;6.10;3.80;;;17.90;99.90;;;;;;5091175;28;20080;-79
2022/09/07 03:20:36;;;;;;;5.20;3.80;;;17.90;99.90;;;;;;5109417;28;20035;-80
2022/09/07 03:23:02;;;;;;;5.65;4.13;;;17.90;99.90;;;;;;5108698;28;20373;-80
2022/09/07 03:25:27;;;;;;;7.60;4.05;;;17.90;99.90;;;;;;5105446;28;20081;-80
2022/09/07 03:27:53;;;;;;;6.38;4.13;;;17.90;99.90;;;;;;5110342;28;20092;-80
2022/09/07 03:30:19;;;;;;;5.22;4.13;;;17.90;99.90;;;;;;5104677;28;20039;-80
2022/09/07 03:32:44;;;;;;;5.95;4.18;;;17.90;99.90;;;;;;5083401;28;20040;-79
2022/09/07 03:35:10;;;;;;;5.07;4.25;;;17.90;99.90;;;;;;5106459;28;20040;-79
2022/09/07 03:37:36;;;;;;;5.57;4.95;;;17.90;99.90;;;;;;5099724;28;20032;-80
2022/09/07 03:40:04;;;;;;;5.72;5.05;;;17.80;99.90;;;;;;5103054;28;20127;-81
2022/09/07 03:42:30;;;;;;;6.10;4.97;;;17.90;99.90;;;;;;5109353;28;20067;-80
2022/09/07 03:44:55;;;;;;;5.45;4.90;;;17.80;99.90;;;;;;5105816;28;20067;-80
2022/09/07 03:47:21;;;;;;;5.85;5.20;;;17.90;99.90;;;;;;5113057;28;20046;-81
2022/09/07 03:49:47;;;;;;;6.85;5.00;;;17.80;99.90;;;;;;5111448;28;20109;-80
2022/09/07 03:52:13;;;;;;;5.68;5.10;;;17.80;99.90;;;;;;5104004;28;20047;-80
2022/09/07 03:54:39;;;;;;;5.47;4.95;;;17.80;99.90;;;;;;5113204;28;20119;-80
2022/09/07 03:57:04;;;;;;;6.63;4.88;;;17.80;99.90;;;;;;5101766;28;20043;-80
2022/09/07 03:59:30;;;;;;;7.90;5.35;;;17.80;99.90;;;;;;5085127;28;20032;-81
2022/09/07 04:01:56;;;;;;;6.95;4.78;;;17.90;99.90;;;;;;5107758;28;20061;-80
2022/09/07 04:04:21;;;;;;;6.63;4.93;;;17.80;99.90;;;;;;5105867;28;20073;-81
2022/09/07 04:06:47;;;;;;;7.93;5.20;;;17.90;99.90;;;;;;5107467;28;20076;-80
2022/09/07 04:09:13;;;;;;;4.90;4.40;;;17.80;99.90;;;;;;5109475;28;20413;-80
2022/09/07 04:11:41;;;;;;;6.25;4.55;;;17.80;99.90;;;;;;5102333;28;20042;-80
2022/09/07 04:14:07;;;;;;;5.30;4.70;;;17.80;99.90;;;;;;5103878;28;20088;-80
2022/09/07 04:16:33;;;;;;;6.10;4.88;;;17.80;99.90;;;;;;5107063;28;20069;-81
2022/09/07 04:18:59;;;;;;;5.78;5.13;;;17.80;99.90;;;;;;5108894;28;20513;-81
2022/09/07 04:21:26;;;;;;;6.85;4.97;;;17.70;99.90;;;;;;5088114;28;20112;-80
2022/09/07 04:23:52;;;;;;;5.63;5.03;;;17.70;99.90;;;;;;5105963;28;20032;-81
2022/09/07 04:26:22;;;;;;;7.22;5.18;;;17.70;99.90;;;;;;5102513;28;20051;-80
2022/09/07 04:28:48;;;;;;;6.18;5.05;;;17.60;99.90;;;;;;5105849;28;20409;-82
2022/09/07 04:31:16;;;;;;;8.10;5.82;;;17.60;99.90;;;;;;5104115;28;20116;-81
2022/09/07 04:33:44;;;;;;;8.25;6.03;;;17.50;99.90;;;;;;5105176;28;20062;-81
2022/09/07 04:36:10;;;;;;;8.02;6.05;;;17.50;99.90;;;;;;5096952;28;20063;-80
2022/09/07 04:38:38;;;;;;;9.32;6.43;;;17.40;99.90;;;;;;5099136;28;20036;-80
2022/09/07 04:41:17;;;;;;;9.55;6.80;;;17.40;99.90;;;;;;5109980;28;20035;-80
2022/09/07 04:43:44;;;;;;;7.80;6.25;;;17.40;99.90;;;;;;5102012;28;20572;-81
2022/09/07 04:46:20;;;;;;;8.25;6.65;;;17.40;99.90;;;;;;5106758;28;20509;-80
2022/09/07 04:48:51;;;;;;;7.00;6.30;;;17.40;99.90;;;;;;5104384;28;20046;-80
2022/09/07 04:51:18;;;;;;;6.60;5.95;;;17.30;99.90;;;;;;5093629;28;20523;-80
2022/09/07 04:53:47;;;;;;;7.82;6.65;;;17.30;99.90;;;;;;5107738;28;20044;-80
2022/09/07 04:56:13;;;;;;;7.28;6.35;;;17.20;99.90;;;;;;5104660;28;20035;-80
2022/09/07 04:58:38;;;;;;;9.90;6.97;;;17.20;99.90;;;;;;5109969;28;20278;-81
2022/09/07 05:01:05;;;;;;;8.30;6.93;;;17.20;99.90;;;;;;5098988;28;20580;-80
2022/09/07 05:03:34;;;;;;;9.73;7.70;;;17.20;99.90;;;;;;5105364;28;20516;-80
2022/09/07 05:06:01;;;;;;;8.80;7.07;;;17.20;99.90;;;;;;5109259;28;20062;-81
2022/09/07 05:08:27;;;;;;;9.20;7.80;;;17.20;99.90;;;;;;5111258;28;20046;-80
2022/09/07 05:10:54;;;;;;;11.15;7.55;;;17.30;99.90;;;;;;5107611;28;20556;-80
2022/09/07 05:13:20;;;;;;;8.75;7.82;;;17.30;99.90;;;;;;5106323;28;20054;-81
2022/09/07 05:15:45;;;;;;;10.02;8.18;;;17.30;99.90;;;;;;5105564;28;20027;-80
2022/09/07 05:18:12;;;;;;;11.57;9.52;;;17.30;99.90;;;;;;5107457;28;20037;-80
2022/09/07 05:20:39;;;;;;;9.80;8.40;;;17.30;99.90;;;;;;5112142;28;20075;-80
2022/09/07 05:23:04;;;;;;;13.20;10.00;;;17.30;99.90;;;;;;5105856;28;20485;-80
2022/09/07 05:25:30;;;;;;;10.27;9.27;;;17.30;99.90;;;;;;5107605;28;20032;-80
2022/09/07 05:27:56;;;;;;;13.63;10.43;;;17.30;99.90;;;;;;5105818;28;20035;-81
2022/09/07 05:30:21;;;;;;;12.57;9.75;;;17.30;99.90;;;;;;5084083;28;20127;-80
2022/09/07 05:32:47;;;;;;;10.82;9.73;;;17.20;99.90;;;;;;5098135;28;20118;-81
2022/09/07 05:35:13;;;;;;;13.73;10.48;;;17.30;99.90;;;;;;5105463;28;20069;-80
2022/09/07 05:37:39;;;;;;;11.70;10.50;;;17.30;99.90;;;;;;5088957;28;20489;-80
2022/09/07 05:40:05;;;;;;;11.25;10.15;;;17.30;99.90;;;;;;5101557;28;20038;-80
2022/09/07 05:42:31;;;;;;;11.88;10.65;;;17.30;99.90;;;;;;5092120;28;20047;-79
2022/09/07 05:44:56;;;;;;;12.07;10.90;;;17.30;99.90;;;;;;5100724;28;20044;-80
2022/09/07 05:47:23;;;;;;;15.10;11.48;;;17.20;99.90;;;;;;5085805;28;20485;-80
2022/09/07 05:49:48;;;;;;;12.63;11.32;;;17.30;99.90;;;;;;5111312;28;20040;-80
2022/09/07 05:52:14;;;;;;;13.15;10.88;;;17.30;99.90;;;;;;5101122;28;20047;-83
2022/09/07 05:54:40;;;;;;;13.02;11.65;;;17.30;99.90;;;;;;5098386;28;20652;-82
2022/09/07 05:57:06;;;;;;;14.60;12.30;;;17.30;99.90;;;;;;5101634;28;20121;-81
2022/09/07 05:59:32;;;;;;;14.73;13.13;;;17.30;99.90;;;;;;5090883;28;20042;-80
2022/09/07 06:01:58;;;;;;;13.98;12.60;;;17.30;99.90;;;;;;5103386;28;20043;-79
2022/09/07 06:04:24;;;;;;;15.45;12.60;;;17.30;99.90;;;;;;5094175;28;20102;-81
2022/09/07 06:06:50;;;;;;;15.77;14.07;;;17.30;99.90;;;;;;5090028;28;20698;-80
2022/09/07 06:09:15;;;;;;;14.98;13.38;;;17.30;99.90;;;;;;5091158;28;20039;-81
2022/09/07 06:11:41;;;;;;;15.40;13.23;;;17.40;99.90;;;;;;5090060;28;20123;-81
2022/09/07 06:14:07;;;;;;;15.13;13.40;;;17.40;99.90;;;;;;5074308;28;20068;-80
2022/09/07 06:16:33;;;;;;;15.15;12.95;;;17.40;99.90;;;;;;5093675;28;20032;-80
2022/09/07 06:19:04;;;;;;;15.73;13.30;;;17.40;99.90;;;;;;5103562;28;20071;-80
2022/09/07 06:21:33;;;;;;;15.38;13.73;;;17.50;99.90;;;;;;5090839;28;20036;-80
2022/09/07 06:23:59;;;;;;;16.25;14.55;;;17.60;99.90;;;;;;5090987;28;20123;-80
2022/09/07 06:26:24;;;;;;;18.35;15.07;;;17.70;99.90;;;;;;5091979;28;20108;-81
2022/09/07 06:28:50;;;;;;;16.95;15.18;;;17.70;99.90;;;;;;5091493;28;20413;-81
2022/09/07 06:31:18;;;;;;;17.85;15.95;;;17.70;99.90;;;;;;5091832;28;20090;-81
2022/09/07 06:33:44;;;;;;;19.25;15.98;;;17.70;99.90;;;;;;5090132;28;20142;-79
2022/09/07 06:36:12;;;;;;;20.73;17.58;;;17.80;99.90;;;;;;5089747;28;20036;-80
2022/09/07 06:38:38;;;;;;;20.75;18.13;;;17.80;99.90;;;;;;5090232;28;20413;-80
2022/09/07 06:41:07;;;;;;;20.38;17.45;;;17.70;99.90;;;;;;5091654;28;20403;-80
2022/09/07 06:43:33;;;;;;;21.95;18.70;;;17.80;99.90;;;;;;5092466;28;20086;-80
2022/09/07 06:45:59;;;;;;;22.02;18.30;;;17.80;99.90;;;;;;5092446;28;20118;-81
2022/09/07 06:48:25;;;;;;;22.30;19.23;;;17.80;99.90;;;;;;5091514;28;20036;-80
2022/09/07 06:51:00;;;;;;;25.27;19.80;;;17.80;99.90;;;;;;5091181;28;20040;-80
2022/09/07 06:53:28;;;;;;;21.00;18.83;;;17.70;99.90;;;;;;5090533;28;20443;-82
2022/09/07 06:55:54;;;;;;;20.42;18.23;;;17.70;99.90;;;;;;5090047;28;20042;-80
2022/09/07 06:58:20;;;;;;;21.77;19.48;;;17.70;99.90;;;;;;5094097;28;20067;-80
2022/09/07 07:00:46;;;;;;;24.70;19.98;;;17.70;99.90;;;;;;5092727;28;20039;-80
2022/09/07 07:03:11;;;;;;;24.35;20.48;;;17.70;99.90;;;;;;5105833;28;20122;-80
2022/09/07 07:05:37;;;;;;;26.13;19.98;;;17.70;99.90;;;;;;5100373;28;20035;-81
2022/09/07 07:08:02;;;;;;;22.75;18.65;;;17.80;99.90;;;;;;5092096;28;20085;-80
2022/09/07 07:10:28;;;;;;;20.92;18.77;;;17.70;99.90;;;;;;5075178;28;20044;-80
2022/09/07 07:12:55;;;;;;;21.65;19.35;;;17.80;99.90;;;;;;5093011;28;20510;-80
2022/09/07 07:15:23;;;;;;;21.13;18.92;;;17.80;99.90;;;;;;5097117;28;20039;-80
2022/09/07 07:17:48;;;;;;;20.77;18.50;;;17.80;99.90;;;;;;5092843;28;20148;-80
2022/09/07 07:20:14;;;;;;;20.13;18.08;;;17.80;99.90;;;;;;5097550;28;20101;-80
2022/09/07 07:22:39;;;;;;;21.88;17.75;;;17.80;99.90;;;;;;5106071;28;20614;-80
2022/09/07 07:25:05;;;;;;;21.20;19.02;;;17.80;99.90;;;;;;5101965;28;20220;-80
2022/09/07 07:27:31;;;;;;;19.00;17.02;;;17.80;99.90;;;;;;5095349;28;20047;-80
2022/09/07 07:29:56;;;;;;;19.75;17.75;;;17.80;99.90;;;;;;5095738;28;20413;-79
2022/09/07 07:32:22;;;;;;;21.15;18.77;;;17.80;99.90;;;;;;5079303;28;20044;-80
2022/09/07 07:34:47;;;;;;;20.65;17.48;;;17.80;99.90;;;;;;5094784;28;20036;-80
2022/09/07 07:37:14;;;;;;;20.23;17.15;;;17.80;99.90;;;;;;5079662;28;20068;-80
2022/09/07 07:39:41;;;;;;;20.58;17.30;;;17.80;99.90;;;;;;5095003;28;20036;-80
2022/09/07 07:42:07;;;;;;;21.50;17.52;;;17.80;99.90;;;;;;5101795;28;20039;-81
2022/09/07 07:44:33;;;;;;;20.75;18.55;;;17.80;99.90;;;;;;5106700;28;20044;-80
2022/09/07 07:46:59;;;;;;;20.55;18.13;;;17.90;99.90;;;;;;5097033;28;20043;-80
2022/09/07 07:49:24;;;;;;;21.60;19.05;;;17.90;99.90;;;;;;5095389;28;20032;-81
2022/09/07 07:51:53;;;;;;;20.45;18.27;;;18.00;99.90;;;;;;5094655;28;20048;-81
2022/09/07 07:54:19;;;;;;;20.95;18.42;;;18.00;99.90;;;;;;5094346;28;20040;-80
2022/09/07 07:56:44;;;;;;;24.13;18.98;;;18.00;99.90;;;;;;5095149;28;20032;-81
2022/09/07 07:59:10;;;;;;;22.23;19.80;;;18.10;99.90;;;;;;5098609;28;20038;-80
2022/09/07 08:01:35;;;;;;;25.25;19.67;;;18.10;99.90;;;;;;5102221;28;20036;-80
2022/09/07 08:04:01;;;;;;;24.25;20.35;;;18.20;99.90;;;;;;5093514;28;20065;-80
2022/09/07 08:06:27;;;;;;;23.45;19.92;;;18.20;99.90;;;;;;5093092;28;20117;-81
2022/09/07 08:08:54;;;;;;;22.90;20.27;;;18.30;99.90;;;;;;5094169;28;20126;-80
2022/09/07 08:11:21;;;;;;;22.38;20.08;;;18.30;99.90;;;;;;5094303;28;20405;-80
2022/09/07 08:13:49;;;;;;;22.33;19.92;;;18.40;99.90;;;;;;5094100;28;20734;-80
2022/09/07 08:16:16;;;;;;;22.52;20.17;;;18.50;99.90;;;;;;5105103;28;20109;-80
2022/09/07 08:18:42;;;;;;;24.50;21.63;;;18.60;99.90;;;;;;5094476;28;20032;-80
2022/09/07 08:21:12;;;;;;;24.88;22.15;;;18.70;99.90;;;;;;5094519;28;20065;-80
2022/09/07 08:23:39;;;;;;;26.02;21.75;;;18.70;99.90;;;;;;5094375;28;20043;-80
2022/09/07 08:26:05;;;;;;;25.48;20.65;;;18.80;99.90;;;;;;5093679;28;20414;-80
2022/09/07 08:28:36;;;;;;;24.98;21.25;;;18.80;99.90;;;;;;5094208;28;20132;-80
2022/09/07 08:31:07;;;;;;;24.63;21.15;;;18.80;99.90;;;;;;5078801;28;20040;-80
2022/09/07 08:33:36;;;;;;;23.75;20.88;;;18.70;99.90;;;;;;5077703;28;20103;-80
2022/09/07 08:36:04;;;;;;;26.92;22.38;;;18.60;99.90;;;;;;5093680;28;20042;-80
2022/09/07 08:38:31;;;;;;;27.95;23.33;;;18.60;99.90;;;;;;5093755;28;20040;-80
2022/09/07 08:40:58;;;;;;;28.55;21.85;;;18.60;99.90;;;;;;5096601;28;20047;-80
2022/09/07 08:43:51;;;;;;;29.45;23.02;;;18.60;99.90;;;;;;5093924;28;20051;-80
2022/09/07 08:46:58;;;;;;;25.65;22.95;;;18.60;99.90;;;;;;5094040;28;20521;-80
2022/09/07 08:50:04;;;;;;;26.55;22.52;;;18.60;99.90;;;;;;5042336;28;20569;-80
2022/09/07 08:52:46;;;;;;;25.02;22.33;;;18.70;99.90;;;;;;5093273;28;20493;-80
2022/09/07 08:55:20;;;;;;;32.20;23.75;;;18.80;99.90;;;;;;5093065;28;20064;-80
2022/09/07 08:57:55;;;;;;;;;;;18.90;99.90;;;;;;5094795;28;20039;-79
2022/09/07 09:00:21;;;;;;;24.73;22.02;;;19.00;99.90;;;;;;5075952;28;19947;-80
2022/09/07 09:02:47;;;;;;;27.77;23.00;;;19.20;99.90;;;;;;5092681;28;20227;-80
2022/09/07 09:05:36;;;;;;;27.63;24.55;;;19.20;99.90;;;;;;5093169;28;20085;-80
2022/09/07 09:08:34;;;;;;;25.08;21.63;;;19.30;99.90;;;;;;5077226;28;20048;-81
2022/09/07 09:11:08;;;;;;;27.90;22.42;;;19.50;99.90;;;;;;5089962;28;20054;-80
2022/09/07 09:13:47;;;;;;;24.08;21.48;;;19.50;99.90;;;;;;5076155;28;20048;-81
2022/09/07 09:16:22;;;;;;;23.63;21.17;;;19.60;99.90;;;;;;5093380;28;20051;-81
2022/09/07 09:18:59;;;;;;;26.23;22.65;;;19.70;99.90;;;;;;5075790;28;20040;-80
2022/09/07 09:21:25;;;;;;;24.65;21.98;;;19.80;99.90;;;;;;5092678;28;20039;-81
2022/09/07 09:23:57;;;;;;;24.27;21.77;;;20.00;99.90;;;;;;5092653;28;20062;-80
2022/09/07 09:26:29;;;;;;;25.27;21.42;;;20.10;99.90;;;;;;5092790;28;20044;-81
2022/09/07 09:28:56;;;;;;;25.63;20.45;;;20.00;99.90;;;;;;5093316;28;20040;-80
2022/09/07 09:31:26;;;;;;;23.50;20.88;;;20.10;99.90;;;;;;5093063;28;20043;-80
2022/09/07 09:34:16;;;;;;;22.50;19.98;;;20.00;99.90;;;;;;5092573;28;20086;-80
2022/09/07 09:36:48;;;;;;;21.73;19.17;;;20.10;99.90;;;;;;5075088;28;20123;-80
2022/09/07 09:39:35;;;;;;;21.58;19.38;;;20.10;99.90;;;;;;5093611;28;20127;-80
2022/09/07 09:42:13;;;;;;;20.70;18.50;;;20.30;99.90;;;;;;5092531;28;20046;-80
2022/09/07 09:44:39;;;;;;;20.27;18.13;;;20.50;99.90;;;;;;5092586;28;20409;-81
2022/09/07 09:47:05;;;;;;;17.92;16.05;;;20.60;99.90;;;;;;5093411;28;20040;-80
2022/09/07 09:49:37;;;;;;;19.52;16.17;;;20.70;99.90;;;;;;5093083;28;20042;-81
2022/09/07 09:52:13;;;;;;;18.48;15.63;;;20.60;99.90;;;;;;5092454;28;20493;-81
2022/09/07 09:54:43;;;;;;;16.45;13.75;;;20.60;99.90;;;;;;5091983;28;20051;-81
2022/09/07 09:57:34;;;;;;;13.90;12.40;;;20.70;99.90;;;;;;5077079;28;20043;-80
2022/09/07 10:00:01;;;;;;;12.93;11.63;;;20.70;99.90;;;;;;5097594;28;20036;-82
2022/09/07 10:02:29;;;;;;;13.40;10.95;;;20.90;99.90;;;;;;5099522;28;20043;-81
2022/09/07 10:04:55;;;;;;;11.60;10.40;;;21.00;99.90;;;;;;5102334;28;20050;-81
2022/09/07 10:07:24;;;;;;;12.18;10.98;;;21.00;99.90;;;;;;5105434;28;20043;-80
2022/09/07 10:09:52;;;;;;;10.80;9.68;;;21.10;99.90;;;;;;5106066;28;20435;-81
2022/09/07 10:12:27;;;;;;;12.73;9.75;;;21.30;99.90;;;;;;5112576;28;20445;-80
2022/09/07 10:14:55;;;;;;;8.68;7.85;;;21.40;99.90;;;;;;5095904;28;20066;-81
2022/09/07 10:17:41;;;;;;;9.68;8.68;;;21.60;99.90;;;;;;5092038;28;20067;-81
2022/09/07 10:20:15;;;;;;;8.35;7.55;;;21.80;99.90;;;;;;5112942;28;20024;-80
2022/09/07 10:22:50;;;;;;;10.18;8.68;;;22.00;99.90;;;;;;5092347;28;20115;-80
2022/09/07 10:25:38;;;;;;;9.18;8.07;;;22.10;99.90;;;;;;5105657;28;20035;-81
2022/09/07 10:28:13;;;;;;;9.00;8.10;;;22.20;99.90;;;;;;5112251;28;20039;-81
2022/09/07 10:31:00;;;;;;;7.90;7.10;;;22.30;99.90;;;;;;5095013;28;20036;-81
2022/09/07 10:33:49;;;;;;;8.07;6.75;;;22.20;99.90;;;;;;5091958;28;20417;-80
2022/09/07 10:36:25;;;;;;;7.47;6.72;;;22.40;99.90;;;;;;5092959;28;20093;-80
2022/09/07 10:38:59;;;;;;;7.63;6.93;;;22.60;99.90;;;;;;5092023;28;20032;-80
2022/09/07 10:41:45;;;;;;;9.35;6.30;;;22.80;99.90;;;;;;5092540;28;20051;-80
2022/09/07 10:44:19;;;;;;;6.22;5.63;;;22.80;99.90;;;;;;5093363;28;20398;-80
2022/09/07 10:46:54;;;;;;;7.05;5.88;;;22.70;99.90;;;;;;5103576;28;20042;-80
2022/09/07 10:49:28;;;;;;;7.45;6.68;;;22.70;99.90;;;;;;5113145;28;20120;-78
2022/09/07 10:52:17;;;;;;;6.80;6.10;;;22.70;99.90;;;;;;5101994;28;20040;-79
2022/09/07 10:55:03;;;;;;;7.05;5.90;;;22.60;99.90;;;;;;5100865;28;20027;-80
2022/09/07 10:58:07;;;;;;;11.38;6.57;;;22.80;99.90;;;;;;5097663;28;20136;-80
2022/09/07 11:00:48;;;;;;;6.20;5.60;;;23.20;99.90;;;;;;5098533;28;20039;-79
2022/09/07 11:03:43;;;;;;;5.88;5.25;;;23.40;99.90;;;;;;5086860;28;20543;-80
2022/09/07 11:06:23;;;;;;;4.93;4.32;;;23.40;99.90;;;;;;5111222;28;20088;-80
2022/09/07 11:09:07;;;;;;;5.88;4.85;;;23.20;99.90;;;;;;5108049;28;20046;-78
2022/09/07 11:11:59;;;;;;;5.18;4.30;;;23.20;99.90;;;;;;5108918;28;20028;-79
2022/09/07 11:14:27;;;;;;;4.63;3.80;;;23.40;99.90;;;;;;5113341;28;20413;-79
2022/09/07 11:16:58;;;;;;;7.10;4.05;;;23.60;99.90;;;;;;5100650;28;20091;-79
2022/09/07 11:19:31;;;;;;;4.00;3.60;;;23.70;99.90;;;;;;5116138;28;20031;-80
2022/09/07 11:22:02;;;;;;;4.28;3.80;;;23.50;99.90;;;;;;5112663;28;20040;-80
2022/09/07 11:24:44;;;;;;;3.35;3.00;;;23.60;99.90;;;;;;5103165;28;20067;-79
2022/09/07 11:27:25;;;;;;;3.80;3.22;;;23.50;99.90;;;;;;5099437;28;20516;-80
2022/09/07 11:30:21;;;;;;;4.60;3.00;;;23.50;99.90;;;;;;5105356;28;20059;-80
2022/09/07 11:33:15;;;;;;;3.75;2.72;;;23.40;99.90;;;;;;5102076;28;20094;-79
2022/09/07 11:35:54;;;;;;;2.97;2.40;;;23.60;99.90;;;;;;5114525;28;20492;-79
2022/09/07 11:38:33;;;;;;;4.22;2.10;;;24.10;99.90;;;;;;5086064;28;20040;-78
2022/09/07 11:41:12;;;;;;;2.42;1.83;;;24.60;99.90;;;;;;5105897;28;20047;-80
2022/09/07 11:43:44;;;;;;;3.03;1.70;;;25.00;99.90;;;;;;5098653;28;20044;-79
2022/09/07 11:46:18;;;;;;;2.42;1.70;;;25.40;99.90;;;;;;5114273;28;20420;-77
2022/09/07 11:48:57;;;;;;;3.35;1.63;;;25.60;99.90;;;;;;5108088;28;20432;-78
2022/09/07 11:51:46;;;;;;;1.75;1.48;;;25.90;99.90;;;;;;5079759;28;20084;-78
2022/09/07 11:54:44;;;;;;;2.88;1.50;;;26.00;99.90;;;;;;5108124;28;20036;-78
2022/09/07 11:57:41;;;;;;;2.88;1.52;;;25.70;99.90;;;;;;5111223;28;20509;-79
2022/09/07 12:00:13;;;;;;;2.95;1.33;;;25.20;99.90;;;;;;5096613;28;20383;-78
2022/09/07 12:03:12;;;;;;;3.03;1.58;;;25.10;99.90;;;;;;5104089;28;20032;-78
2022/09/07 12:05:37;;;;;;;3.45;1.65;;;24.90;99.90;;;;;;5077262;28;20044;-79
2022/09/07 12:08:11;;;;;;;2.45;1.80;;;24.70;99.90;;;;;;5108071;28;20051;-78
2022/09/07 12:10:56;;;;;;;3.22;1.55;;;24.90;99.90;;;;;;5102761;28;20552;-78
2022/09/07 12:13:46;;;;;;;2.13;1.50;;;25.40;99.90;;;;;;5100386;28;20039;-79
2022/09/07 12:16:31;;;;;;;1.75;1.40;;;26.10;99.90;;;;;;5101418;28;20039;-78
2022/09/07 12:19:03;;;;;;;2.03;1.48;;;26.40;99.90;;;;;;5082295;28;20043;-78
2022/09/07 12:21:54;;;;;;;2.38;1.33;;;26.60;99.90;;;;;;5110353;28;20060;-79
2022/09/07 12:24:37;;;;;;;2.72;1.33;;;26.40;99.90;;;;;;5112517;28;20102;-79
2022/09/07 12:27:08;;;;;;;3.17;1.30;;;26.00;99.90;;;;;;5113718;28;20035;-79
2022/09/07 12:29:33;;;;;;;2.95;1.30;;;25.60;99.90;;;;;;5102139;28;20320;-78
2022/09/07 12:32:02;;;;;;;2.10;1.50;;;25.30;99.90;;;;;;5091639;28;20513;-79
2022/09/07 12:34:30;;;;;;;2.20;1.40;;;25.10;99.90;;;;;;5091351;28;20040;-78
2022/09/07 12:36:57;;;;;;;3.13;1.42;;;25.00;99.90;;;;;;5091573;28;20040;-78
2022/09/07 12:39:31;;;;;;;2.25;1.45;;;24.80;99.90;;;;;;5095139;28;20490;-80
2022/09/07 12:42:05;;;;;;;3.50;1.40;;;24.60;99.90;;;;;;5091951;28;20036;-79
2022/09/07 12:44:35;;;;;;;2.63;1.48;;;24.40;99.90;;;;;;5091883;28;20068;-79
2022/09/07 12:47:10;;;;;;;3.72;2.42;;;24.20;99.90;;;;;;5075425;28;20455;-79
2022/09/07 12:50:04;;;;;;;3.35;2.40;;;24.00;99.90;;;;;;5083330;28;20044;-79
2022/09/07 12:52:44;;;;;;;3.85;2.40;;;23.90;99.90;;;;;;5110666;28;20036;-79
2022/09/07 12:55:32;;;;;;;2.42;1.50;;;23.80;99.90;;;;;;5092658;28;20085;-79
2022/09/07 12:58:26;;;;;;;2.03;1.30;;;23.80;99.90;;;;;;5092015;28;20580;-80
2022/09/07 13:01:26;;;;;;;4.37;1.47;;;23.70;99.90;;;;;;5081862;28;20443;-79
2022/09/07 13:04:10;;;;;;;2.55;1.20;;;23.80;99.90;;;;;;5112819;28;20636;-80
2022/09/07 13:06:55;;;;;;;3.30;1.60;;;23.90;99.90;;;;;;5092726;28;20040;-80